createdAt,value
2018-12-19T00:00:43.567Z,5.40
2018-12-19T00:03:14.641Z,5.30
2018-12-19T00:05:45.638Z,5.20
2018-12-19T00:08:14.668Z,5.30
2018-12-19T00:10:43.787Z,5.30
2018-12-19T00:13:19.830Z,5.30
2018-12-19T00:15:48.843Z,5.20
2018-12-19T00:18:17.824Z,5.10
2018-12-19T00:20:46.863Z,5.10
2018-12-19T00:23:15.863Z,5.10
2018-12-19T00:25:44.903Z,5.10
2018-12-19T00:28:15.911Z,5.10
2018-12-19T00:30:46.945Z,5.00
2018-12-19T00:33:17.932Z,5.00
2018-12-19T00:35:48.905Z,5.10
2018-12-19T00:38:17.932Z,5.10
2018-12-19T00:40:47.034Z,5.10
2018-12-19T00:43:16.023Z,5.20
2018-12-19T00:45:45.000Z,5.10
2018-12-19T00:48:14.018Z,5.10
2018-12-19T00:50:44.022Z,5.00
2018-12-19T00:53:14.030Z,5.10
2018-12-19T00:55:43.029Z,5.10
2018-12-19T00:58:12.038Z,5.20
2018-12-19T01:00:41.050Z,5.20
2018-12-19T01:03:10.035Z,5.20
2018-12-19T01:05:39.062Z,5.20
2018-12-19T01:08:08.062Z,5.20
2018-12-19T01:10:37.217Z,5.30
2018-12-19T01:13:06.228Z,5.10
2018-12-19T01:15:36.206Z,5.20
2018-12-19T01:18:05.221Z,5.20
2018-12-19T01:20:34.199Z,5.20
2018-12-19T01:23:03.222Z,5.20
2018-12-19T01:25:32.188Z,5.20
2018-12-19T01:28:01.175Z,5.30
2018-12-19T01:30:30.170Z,5.40
2018-12-19T01:33:00.194Z,5.40
2018-12-19T01:35:29.236Z,5.40
2018-12-19T01:37:58.285Z,5.50
2018-12-19T01:40:27.287Z,5.50
2018-12-19T01:42:56.284Z,5.40
2018-12-19T01:45:25.318Z,5.40
2018-12-19T01:47:54.566Z,5.40
2018-12-19T01:50:23.539Z,5.40
2018-12-19T01:52:52.587Z,5.50
2018-12-19T01:55:21.588Z,5.40
2018-12-19T01:57:50.601Z,5.50
2018-12-19T02:00:21.644Z,5.40
2018-12-19T02:02:50.679Z,5.50
2018-12-19T02:05:19.654Z,5.50
2018-12-19T02:07:48.650Z,5.50
2018-12-19T02:10:17.671Z,5.50
2018-12-19T02:12:46.710Z,5.60
2018-12-19T02:15:15.725Z,5.60
2018-12-19T02:17:44.723Z,5.60
2018-12-19T02:20:14.243Z,5.60
2018-12-19T02:22:43.402Z,5.70
2018-12-19T02:25:12.455Z,5.70
2018-12-19T02:27:41.439Z,5.70
2018-12-19T02:30:10.695Z,5.60
2018-12-19T02:32:39.674Z,5.50
2018-12-19T02:35:08.708Z,5.50
2018-12-19T02:37:37.719Z,5.40
2018-12-19T02:40:06.836Z,5.30
2018-12-19T02:42:36.581Z,5.20
2018-12-19T02:45:05.885Z,5.10
2018-12-19T02:47:35.803Z,5.10
2018-12-19T02:50:05.858Z,5.10
2018-12-19T02:52:34.871Z,5.00
2018-12-19T02:55:04.149Z,5.00
2018-12-19T02:57:33.167Z,4.90
2018-12-19T03:00:02.184Z,4.90
2018-12-19T03:02:32.146Z,4.90
2018-12-19T03:05:01.126Z,4.90
2018-12-19T03:07:30.122Z,4.90
2018-12-19T03:09:59.235Z,4.80
2018-12-19T03:12:28.304Z,4.80
2018-12-19T03:14:57.335Z,4.90
2018-12-19T03:17:26.360Z,5.00
2018-12-19T03:19:55.370Z,5.00
2018-12-19T03:22:24.363Z,5.00
2018-12-19T03:24:53.361Z,5.00
2018-12-19T03:27:22.330Z,5.00
2018-12-19T03:29:51.322Z,5.10
2018-12-19T03:32:20.455Z,5.00
2018-12-19T03:34:49.456Z,5.00
2018-12-19T03:37:19.426Z,5.10
2018-12-19T03:39:50.452Z,5.10
2018-12-19T03:42:19.402Z,5.00
2018-12-19T03:44:48.494Z,5.00
2018-12-19T03:47:17.494Z,5.10
2018-12-19T03:49:46.799Z,5.10
2018-12-19T03:52:15.802Z,5.10
2018-12-19T03:54:44.830Z,5.10
2018-12-19T03:57:14.144Z,5.10
2018-12-19T03:59:43.142Z,5.20
2018-12-19T04:02:12.118Z,5.30
2018-12-19T04:04:41.106Z,5.30
2018-12-19T04:07:10.102Z,5.40
2018-12-19T04:09:39.095Z,5.30
2018-12-19T04:12:08.146Z,5.40
2018-12-19T04:14:37.191Z,5.50
2018-12-19T04:17:06.278Z,5.50
2018-12-19T04:19:35.268Z,5.40
2018-12-19T04:22:06.309Z,5.30
2018-12-19T04:24:35.330Z,5.30
2018-12-19T04:27:05.505Z,5.30
2018-12-19T04:29:34.894Z,5.30
2018-12-19T04:32:03.919Z,5.30
2018-12-19T04:34:32.934Z,5.20
2018-12-19T04:37:01.929Z,5.20
2018-12-19T04:39:30.948Z,5.20
2018-12-19T04:41:59.927Z,5.10
2018-12-19T04:44:28.967Z,5.20
2018-12-19T04:46:57.962Z,5.20
2018-12-19T04:49:26.943Z,5.10
2018-12-19T04:51:55.947Z,5.10
2018-12-19T04:54:24.926Z,5.00
2018-12-19T04:56:53.964Z,4.90
2018-12-19T04:59:22.969Z,4.90
2018-12-19T05:01:51.960Z,4.90
2018-12-19T05:04:20.958Z,4.90
2018-12-19T05:06:49.943Z,4.90
2018-12-19T05:09:19.029Z,4.90
2018-12-19T05:11:48.054Z,4.90
2018-12-19T05:14:17.503Z,4.90
2018-12-19T05:16:46.523Z,5.00
2018-12-19T05:19:15.530Z,5.00
2018-12-19T05:21:47.212Z,5.00
2018-12-19T05:24:17.122Z,5.00
2018-12-19T05:26:46.173Z,5.10
2018-12-19T05:29:15.225Z,5.10
2018-12-19T05:31:44.238Z,5.10
2018-12-19T05:34:13.237Z,5.10
2018-12-19T05:36:42.255Z,5.10
2018-12-19T05:39:11.306Z,5.10
2018-12-19T05:41:40.308Z,5.20
2018-12-19T05:44:09.298Z,5.20
2018-12-19T05:46:38.318Z,5.20
2018-12-19T05:49:07.301Z,5.30
2018-12-19T05:51:36.310Z,5.30
2018-12-19T05:54:05.283Z,5.30
2018-12-19T05:56:34.267Z,5.30
2018-12-19T05:59:03.258Z,5.30
2018-12-19T06:01:32.283Z,5.30
2018-12-19T06:04:03.299Z,5.30
2018-12-19T06:06:32.299Z,5.30
2018-12-19T06:09:01.322Z,5.30
2018-12-19T06:11:30.363Z,5.30
2018-12-19T06:13:59.387Z,5.40
2018-12-19T06:16:28.598Z,5.40
2018-12-19T06:18:57.602Z,5.40
2018-12-19T06:21:26.602Z,5.50
2018-12-19T06:23:55.629Z,5.60
2018-12-19T06:26:24.658Z,5.60
2018-12-19T06:28:58.096Z,5.70
2018-12-19T06:31:27.230Z,5.80
2018-12-19T06:33:56.497Z,5.90
2018-12-19T06:36:25.719Z,5.90
2018-12-19T06:38:54.814Z,6.00
2018-12-19T06:41:23.906Z,6.00
2018-12-19T06:43:52.897Z,6.00
2018-12-19T06:46:21.895Z,5.90
2018-12-19T06:48:50.906Z,6.00
2018-12-19T06:51:19.919Z,6.00
2018-12-19T06:53:48.947Z,6.10
2018-12-19T06:56:17.946Z,6.10
2018-12-19T06:58:46.937Z,6.10
2018-12-19T07:01:16.007Z,6.10
2018-12-19T07:03:45.007Z,6.20
2018-12-19T07:06:14.014Z,6.30
2018-12-19T07:08:43.030Z,6.40
2018-12-19T07:11:12.071Z,6.50
2018-12-19T07:13:41.106Z,6.60
2018-12-19T07:16:10.123Z,6.60
2018-12-19T07:18:39.399Z,6.70
2018-12-19T07:21:08.578Z,6.70
2018-12-19T07:23:37.794Z,6.70
2018-12-19T07:26:06.814Z,6.80
2018-12-19T07:28:35.826Z,6.80
2018-12-19T07:31:04.934Z,6.80
2018-12-19T07:33:33.950Z,6.80
2018-12-19T07:36:02.978Z,6.90
2018-12-19T07:38:32.002Z,7.00
2018-12-19T07:41:00.992Z,7.20
2018-12-19T07:43:30.003Z,7.20
2018-12-19T07:45:58.995Z,7.20
2018-12-19T07:48:28.205Z,7.20
2018-12-19T07:50:57.639Z,7.30
2018-12-19T07:53:26.715Z,7.30
2018-12-19T07:55:55.749Z,7.30
2018-12-19T07:58:24.775Z,7.30
2018-12-19T08:00:53.802Z,7.40
2018-12-19T08:03:22.993Z,7.50
2018-12-19T08:05:51.995Z,7.50
2018-12-19T08:08:21.008Z,7.60
2018-12-19T08:10:52.359Z,7.60
2018-12-19T08:13:21.070Z,7.70
2018-12-19T08:15:50.179Z,7.70
2018-12-19T08:18:19.378Z,7.80
2018-12-19T08:20:48.399Z,7.80
2018-12-19T08:23:17.391Z,7.90
2018-12-19T08:25:46.407Z,7.90
2018-12-19T08:28:15.443Z,7.90
2018-12-19T08:30:45.514Z,8.00
2018-12-19T08:33:14.528Z,8.00
2018-12-19T08:35:43.541Z,8.00
2018-12-19T08:38:12.582Z,8.10
2018-12-19T08:40:41.605Z,8.10
2018-12-19T08:43:10.646Z,8.10
2018-12-19T08:45:40.000Z,8.10
2018-12-19T08:48:09.033Z,8.10
2018-12-19T08:50:38.084Z,8.10
2018-12-19T08:53:07.159Z,8.20
2018-12-19T08:55:36.198Z,8.20
2018-12-19T08:58:06.330Z,8.20
2018-12-19T09:00:35.400Z,8.20
2018-12-19T09:03:04.526Z,8.20
2018-12-19T09:05:33.588Z,8.20
2018-12-19T09:08:03.630Z,8.30
2018-12-19T09:10:32.735Z,8.30
2018-12-19T09:13:01.748Z,8.40
2018-12-19T09:15:36.058Z,8.40
2018-12-19T09:18:05.223Z,8.40
2018-12-19T09:20:34.515Z,8.50
2018-12-19T09:23:03.667Z,8.50
2018-12-19T09:25:32.687Z,8.60
2018-12-19T09:28:02.993Z,8.70
2018-12-19T09:30:32.111Z,8.70
2018-12-19T09:33:01.155Z,8.80
2018-12-19T09:35:30.246Z,8.80
2018-12-19T09:37:59.259Z,8.80
2018-12-19T09:40:28.315Z,8.90
2018-12-19T09:42:57.470Z,9.00
2018-12-19T09:45:26.583Z,9.00
2018-12-19T09:47:55.582Z,9.10
2018-12-19T09:50:24.619Z,10.10
2018-12-19T09:52:53.687Z,10.60
2018-12-19T09:55:22.710Z,10.50
2018-12-19T09:57:51.792Z,11.00
2018-12-19T10:00:26.130Z,11.10
2018-12-19T10:02:55.426Z,10.90
2018-12-19T10:05:24.776Z,11.30
2018-12-19T10:07:53.916Z,12.10
2018-12-19T10:10:22.950Z,12.90
2018-12-19T10:12:51.963Z,13.50
2018-12-19T10:15:20.985Z,14.10
2018-12-19T10:17:50.023Z,14.70
2018-12-19T10:20:19.167Z,14.60
2018-12-19T10:22:50.235Z,14.00
2018-12-19T10:25:19.340Z,13.30
2018-12-19T10:27:48.360Z,13.80
2018-12-19T10:30:17.368Z,14.00
2018-12-19T10:32:50.628Z,14.20
2018-12-19T10:35:19.640Z,14.20
2018-12-19T10:37:48.675Z,13.50
2018-12-19T10:40:17.693Z,12.10
2018-12-19T10:42:46.730Z,11.60
2018-12-19T10:45:15.718Z,11.30
2018-12-19T10:47:44.759Z,11.10
2018-12-19T10:50:13.738Z,11.20
2018-12-19T10:52:42.738Z,11.10
2018-12-19T10:55:12.330Z,11.00
2018-12-19T10:57:41.365Z,10.80
2018-12-19T11:00:17.691Z,10.60
2018-12-19T11:02:46.826Z,10.40
2018-12-19T11:05:15.838Z,10.30
2018-12-19T11:07:45.843Z,10.20
2018-12-19T11:10:14.881Z,10.20
2018-12-19T11:12:43.914Z,10.20
2018-12-19T11:15:13.451Z,10.10
2018-12-19T11:17:42.510Z,10.10
2018-12-19T11:20:11.522Z,10.10
2018-12-19T11:22:40.538Z,10.00
2018-12-19T11:25:09.609Z,10.10
2018-12-19T11:27:38.627Z,10.10
2018-12-19T11:30:08.907Z,10.10
2018-12-19T11:32:37.907Z,10.10
2018-12-19T11:35:06.929Z,10.10
2018-12-19T11:37:35.954Z,10.20
2018-12-19T11:40:06.467Z,10.40
2018-12-19T11:42:36.480Z,10.50
2018-12-19T11:45:05.975Z,10.60
2018-12-19T11:47:35.010Z,10.70
2018-12-19T11:50:04.517Z,10.60
2018-12-19T11:52:33.531Z,10.60
2018-12-19T11:55:02.535Z,10.50
2018-12-19T11:57:31.855Z,10.50
2018-12-19T12:00:00.895Z,10.50
2018-12-19T12:02:29.936Z,10.40
2018-12-19T12:04:58.976Z,10.40
2018-12-19T12:07:30.035Z,10.50
2018-12-19T12:09:59.080Z,10.50
2018-12-19T12:12:28.153Z,10.40
2018-12-19T12:14:57.166Z,10.50
2018-12-19T12:17:26.202Z,10.50
2018-12-19T12:19:55.231Z,10.50
2018-12-19T12:22:24.246Z,10.40
2018-12-19T12:24:53.280Z,10.40
2018-12-19T12:27:22.300Z,10.50
2018-12-19T12:29:51.318Z,10.50
2018-12-19T12:32:20.356Z,10.40
2018-12-19T12:34:49.362Z,10.40
2018-12-19T12:37:18.384Z,10.40
2018-12-19T12:39:47.392Z,10.40
2018-12-19T12:42:16.430Z,10.40
2018-12-19T12:44:45.671Z,10.40
2018-12-19T12:47:14.878Z,10.40
2018-12-19T12:49:43.886Z,10.40
2018-12-19T12:52:12.975Z,10.30
2018-12-19T12:54:42.046Z,10.30
2018-12-19T12:57:11.202Z,10.30
2018-12-19T12:59:40.254Z,10.20
2018-12-19T13:02:09.247Z,10.20
2018-12-19T13:04:38.291Z,10.20
2018-12-19T13:07:07.319Z,10.20
2018-12-19T13:09:36.396Z,10.20
2018-12-19T13:12:05.393Z,10.20
2018-12-19T13:14:34.539Z,10.30
2018-12-19T13:17:03.567Z,10.30
2018-12-19T13:19:32.807Z,10.30
2018-12-19T13:22:01.805Z,10.30
2018-12-19T13:24:30.873Z,10.30
2018-12-19T13:26:59.943Z,10.30
2018-12-19T13:29:28.962Z,10.30
2018-12-19T13:31:58.514Z,10.30
2018-12-19T13:34:27.711Z,10.30
2018-12-19T13:36:56.816Z,10.30
2018-12-19T13:39:25.864Z,10.30
2018-12-19T13:41:54.878Z,10.30
2018-12-19T13:44:23.924Z,10.30
2018-12-19T13:46:52.977Z,10.30
2018-12-19T13:49:22.042Z,10.30
2018-12-19T13:51:51.090Z,10.20
2018-12-19T13:54:20.093Z,10.30
2018-12-19T13:56:50.148Z,10.30
2018-12-19T13:59:19.205Z,10.30
2018-12-19T14:01:48.242Z,10.30
2018-12-19T14:04:18.268Z,10.30
2018-12-19T14:06:47.291Z,10.30
2018-12-19T14:09:16.356Z,10.20
2018-12-19T14:11:45.372Z,10.10
2018-12-19T14:14:14.403Z,10.10
2018-12-19T14:16:43.434Z,10.20
2018-12-19T14:19:12.442Z,10.10
2018-12-19T14:21:41.511Z,10.10
2018-12-19T14:24:10.543Z,10.10
2018-12-19T14:26:39.593Z,10.00
2018-12-19T14:29:08.639Z,10.00
2018-12-19T14:31:37.659Z,10.00
2018-12-19T14:34:06.782Z,10.10
2018-12-19T14:36:36.047Z,10.10
2018-12-19T14:39:06.921Z,10.20
2018-12-19T14:41:36.012Z,10.20
2018-12-19T14:44:05.140Z,10.20
2018-12-19T14:46:34.138Z,10.20
2018-12-19T14:49:03.374Z,10.20
2018-12-19T14:51:32.427Z,10.20
2018-12-19T14:54:01.483Z,10.20
2018-12-19T14:56:30.511Z,10.20
2018-12-19T14:59:00.551Z,10.20
2018-12-19T15:01:29.554Z,10.20
2018-12-19T15:03:58.618Z,10.10
2018-12-19T15:06:27.651Z,10.10
2018-12-19T15:08:56.693Z,10.10
2018-12-19T15:11:27.032Z,10.10
2018-12-19T15:13:56.169Z,10.10
2018-12-19T15:16:25.189Z,10.00
2018-12-19T15:18:54.216Z,9.90
2018-12-19T15:21:23.237Z,10.00
2018-12-19T15:23:52.279Z,10.00
2018-12-19T15:26:21.299Z,9.90
2018-12-19T15:28:50.321Z,9.80
2018-12-19T15:31:19.362Z,9.80
2018-12-19T15:33:48.489Z,9.70
2018-12-19T15:36:17.853Z,9.80
2018-12-19T15:38:46.895Z,9.80
2018-12-19T15:41:15.942Z,9.70
2018-12-19T15:43:45.075Z,9.70
2018-12-19T15:46:14.077Z,9.70
2018-12-19T15:48:43.145Z,9.60
2018-12-19T15:51:12.134Z,9.60
2018-12-19T15:53:41.190Z,9.60
2018-12-19T15:56:10.925Z,9.50
2018-12-19T15:58:39.984Z,9.60
2018-12-19T16:01:09.019Z,9.60
2018-12-19T16:03:38.760Z,9.60
2018-12-19T16:06:08.593Z,9.70
2018-12-19T16:08:38.428Z,9.70
2018-12-19T16:11:07.479Z,9.70
2018-12-19T16:13:36.701Z,9.70
2018-12-19T16:16:06.015Z,9.70
2018-12-19T16:18:35.151Z,9.70
2018-12-19T16:21:04.174Z,9.70
2018-12-19T16:23:33.221Z,9.70
2018-12-19T16:26:02.254Z,9.70
2018-12-19T16:28:31.312Z,9.70
2018-12-19T16:31:00.396Z,9.60
2018-12-19T16:33:29.456Z,9.60
2018-12-19T16:35:58.495Z,9.60
2018-12-19T16:38:27.533Z,9.60
2018-12-19T16:40:56.570Z,9.60
2018-12-19T16:43:26.010Z,9.50
2018-12-19T16:45:55.031Z,9.60
2018-12-19T16:48:24.074Z,9.50
2018-12-19T16:50:53.096Z,9.50
2018-12-19T16:53:22.128Z,9.50
2018-12-19T16:55:51.144Z,9.30
2018-12-19T16:58:20.220Z,9.20
2018-12-19T17:00:49.227Z,9.10
2018-12-19T17:03:18.239Z,9.00
2018-12-19T17:05:47.282Z,8.90
2018-12-19T17:08:16.289Z,8.90
2018-12-19T17:10:45.917Z,8.70
2018-12-19T17:13:14.931Z,8.70
2018-12-19T17:15:44.241Z,8.60
2018-12-19T17:18:13.689Z,8.50
2018-12-19T17:20:42.814Z,8.50
2018-12-19T17:23:11.794Z,8.50
2018-12-19T17:25:40.811Z,8.50
2018-12-19T17:28:10.830Z,8.50
2018-12-19T17:30:39.992Z,8.50
2018-12-19T17:33:08.956Z,8.40
2018-12-19T17:35:37.995Z,8.30
2018-12-19T17:38:07.987Z,8.20
2018-12-19T17:40:37.007Z,8.30
2018-12-19T17:43:05.988Z,8.30
2018-12-19T17:45:34.972Z,8.20
2018-12-19T17:48:04.045Z,8.20
2018-12-19T17:50:33.035Z,8.30
2018-12-19T17:53:02.075Z,8.20
2018-12-19T17:55:31.075Z,8.20
2018-12-19T17:58:00.919Z,8.20
2018-12-19T18:00:29.938Z,8.10
2018-12-19T18:02:58.954Z,8.10
2018-12-19T18:05:27.945Z,7.90
2018-12-19T18:07:57.479Z,7.70
2018-12-19T18:10:26.528Z,7.60
2018-12-19T18:12:55.552Z,7.50
2018-12-19T18:15:24.567Z,7.40
2018-12-19T18:17:53.570Z,7.30
2018-12-19T18:20:22.595Z,7.30
2018-12-19T18:22:51.560Z,7.50
2018-12-19T18:25:20.558Z,7.50
2018-12-19T18:27:49.545Z,7.50
2018-12-19T18:30:18.672Z,7.30
2018-12-19T18:32:47.707Z,7.20
2018-12-19T18:35:16.692Z,7.10
2018-12-19T18:37:45.683Z,7.10
2018-12-19T18:40:14.667Z,7.10
2018-12-19T18:42:43.675Z,7.00
2018-12-19T18:45:12.738Z,7.00
2018-12-19T18:47:41.810Z,6.90
2018-12-19T18:50:10.768Z,6.90
2018-12-19T18:52:39.740Z,6.80
2018-12-19T18:55:08.892Z,6.90
2018-12-19T18:57:37.963Z,6.80
2018-12-19T19:00:07.795Z,6.80
2018-12-19T19:02:36.778Z,6.80
2018-12-19T19:05:06.196Z,6.70
2018-12-19T19:07:36.325Z,6.70
2018-12-19T19:10:05.840Z,6.70
2018-12-19T19:12:34.779Z,6.60
2018-12-19T19:15:04.181Z,6.60
2018-12-19T19:17:33.179Z,6.60
2018-12-19T19:20:02.192Z,6.60
2018-12-19T19:22:31.335Z,6.50
2018-12-19T19:25:00.336Z,6.50
2018-12-19T19:27:29.341Z,6.40
2018-12-19T19:29:58.306Z,6.40
2018-12-19T19:32:27.316Z,6.30
2018-12-19T19:34:56.362Z,6.10
2018-12-19T19:37:25.350Z,6.20
2018-12-19T19:39:54.361Z,6.10
2018-12-19T19:42:23.385Z,6.20
2018-12-19T19:44:52.355Z,6.30
2018-12-19T19:47:21.313Z,6.30
2018-12-19T19:49:50.315Z,6.30
2018-12-19T19:52:19.345Z,6.20
2018-12-19T19:54:48.441Z,6.00
2018-12-19T19:57:17.418Z,6.00
2018-12-19T19:59:46.389Z,6.10
2018-12-19T20:02:15.374Z,6.20
2018-12-19T20:04:45.419Z,6.10
2018-12-19T20:07:14.395Z,6.20
2018-12-19T20:09:43.413Z,6.20
2018-12-19T20:12:12.426Z,6.20
2018-12-19T20:14:41.470Z,6.20
2018-12-19T20:17:14.800Z,6.10
2018-12-19T20:19:43.787Z,6.20
2018-12-19T20:22:12.900Z,6.20
2018-12-19T20:24:41.958Z,6.10
2018-12-19T20:27:11.030Z,6.10
2018-12-19T20:29:40.002Z,6.20
2018-12-19T20:32:09.104Z,6.20
2018-12-19T20:34:38.099Z,6.00
2018-12-19T20:37:07.260Z,6.10
2018-12-19T20:39:36.349Z,6.00
2018-12-19T20:42:05.358Z,5.90
2018-12-19T20:44:34.348Z,5.90
2018-12-19T20:47:03.312Z,5.90
2018-12-19T20:49:32.302Z,5.90
2018-12-19T20:52:01.271Z,5.80
2018-12-19T20:54:30.273Z,5.70
2018-12-19T20:56:59.328Z,5.80
2018-12-19T20:59:28.407Z,5.70
2018-12-19T21:01:57.471Z,5.60
2018-12-19T21:04:26.491Z,5.70
2018-12-19T21:06:56.611Z,5.80
2018-12-19T21:09:25.644Z,5.90
2018-12-19T21:11:54.644Z,5.90
2018-12-19T21:14:23.659Z,6.00
2018-12-19T21:16:57.904Z,6.10
2018-12-19T21:19:26.904Z,6.10
2018-12-19T21:21:55.862Z,6.20
2018-12-19T21:24:24.887Z,6.20
2018-12-19T21:26:53.875Z,6.20
2018-12-19T21:29:22.858Z,6.20
2018-12-19T21:31:51.842Z,6.20
2018-12-19T21:34:20.857Z,6.10
2018-12-19T21:36:49.849Z,6.00
2018-12-19T21:39:18.877Z,5.90
2018-12-19T21:41:47.930Z,5.80
2018-12-19T21:44:17.038Z,5.80
2018-12-19T21:46:46.145Z,5.70
2018-12-19T21:49:15.262Z,5.70
2018-12-19T21:51:44.428Z,5.90
2018-12-19T21:54:13.536Z,5.90
2018-12-19T21:56:42.650Z,6.00
2018-12-19T21:59:11.745Z,6.20
2018-12-19T22:01:40.832Z,6.20
2018-12-19T22:04:09.999Z,6.20
2018-12-19T22:06:39.145Z,6.20
2018-12-19T22:09:09.459Z,6.30
2018-12-19T22:11:38.808Z,6.40
2018-12-19T22:14:09.236Z,6.40
2018-12-19T22:16:43.707Z,6.40
2018-12-19T22:19:12.742Z,6.20
2018-12-19T22:21:41.821Z,6.10
2018-12-19T22:24:10.911Z,6.10
2018-12-19T22:26:40.834Z,6.10
2018-12-19T22:29:09.885Z,6.20
2018-12-19T22:31:38.935Z,6.10
2018-12-19T22:34:08.129Z,6.10
2018-12-19T22:36:37.409Z,6.20
2018-12-19T22:39:10.755Z,6.20
2018-12-19T22:41:39.933Z,6.20
2018-12-19T22:44:09.080Z,6.20
2018-12-19T22:46:38.344Z,6.20
2018-12-19T22:49:07.493Z,6.10
2018-12-19T22:51:36.669Z,6.00
2018-12-19T22:54:05.850Z,5.90
2018-12-19T22:56:34.874Z,5.90
2018-12-19T22:59:04.198Z,5.80
2018-12-19T23:03:41.614Z,5.80
2018-12-19T23:06:11.192Z,5.80
2018-12-19T23:08:40.500Z,5.80
2018-12-19T23:11:09.479Z,5.80
2018-12-19T23:13:38.556Z,5.80
2018-12-19T23:16:07.244Z,5.70
2018-12-19T23:18:41.942Z,5.70
2018-12-19T23:21:16.931Z,5.70
2018-12-19T23:23:51.739Z,5.70
2018-12-19T23:26:22.934Z,5.70
2018-12-19T23:28:58.303Z,5.70
2018-12-19T23:31:27.476Z,5.70
2018-12-19T23:33:56.719Z,5.70
2018-12-19T23:36:25.804Z,5.70
2018-12-19T23:38:55.235Z,5.60
2018-12-19T23:41:24.377Z,5.50
2018-12-19T23:43:53.794Z,5.50
2018-12-19T23:46:22.883Z,5.50
2018-12-19T23:48:52.426Z,5.50
2018-12-19T23:51:21.822Z,5.70
2018-12-19T23:53:50.849Z,5.90
2018-12-19T23:56:20.017Z,5.90
2018-12-19T23:58:49.223Z,5.90
